sensor_id;sensor_type;location;lat;lon;timestamp;temperature;humidity
4840;DHT22;2434;48.486;7.964;2022-08-11T00:01:12;22.90;22.90
4840;DHT22;2434;48.486;7.964;2022-08-11T00:03:46;22.60;22.70
4840;DHT22;2434;48.486;7.964;2022-08-11T00:06:22;22.40;23.80
4840;DHT22;2434;48.486;7.964;2022-08-11T00:08:53;21.80;25.60
4840;DHT22;2434;48.486;7.964;2022-08-11T00:11:31;22.00;25.20
4840;DHT22;2434;48.486;7.964;2022-08-11T00:14:00;22.20;24.80
4840;DHT22;2434;48.486;7.964;2022-08-11T00:16:31;21.50;26.40
4840;DHT22;2434;48.486;7.964;2022-08-11T00:18:59;21.50;26.40
4840;DHT22;2434;48.486;7.964;2022-08-11T00:21:29;20.30;29.80
4840;DHT22;2434;48.486;7.964;2022-08-11T00:24:18;20.20;30.30
4840;DHT22;2434;48.486;7.964;2022-08-11T00:26:47;20.70;29.40
4840;DHT22;2434;48.486;7.964;2022-08-11T00:29:19;21.10;28.40
4840;DHT22;2434;48.486;7.964;2022-08-11T00:31:53;21.50;27.60
4840;DHT22;2434;48.486;7.964;2022-08-11T00:34:25;21.80;27.00
4840;DHT22;2434;48.486;7.964;2022-08-11T00:37:00;21.60;26.50
4840;DHT22;2434;48.486;7.964;2022-08-11T00:39:32;21.80;26.10
4840;DHT22;2434;48.486;7.964;2022-08-11T00:42:13;21.90;26.50
4840;DHT22;2434;48.486;7.964;2022-08-11T00:44:54;21.20;27.60
4840;DHT22;2434;48.486;7.964;2022-08-11T00:47:38;20.90;29.40
4840;DHT22;2434;48.486;7.964;2022-08-11T00:50:17;20.80;29.80
4840;DHT22;2434;48.486;7.964;2022-08-11T00:53:11;21.20;28.80
4840;DHT22;2434;48.486;7.964;2022-08-11T00:56:39;20.80;29.70
4840;DHT22;2434;48.486;7.964;2022-08-11T00:59:40;21.00;28.40
4840;DHT22;2434;48.486;7.964;2022-08-11T01:02:17;20.70;29.20
4840;DHT22;2434;48.486;7.964;2022-08-11T01:08:17;19.70;32.00
4840;DHT22;2434;48.486;7.964;2022-08-11T01:11:06;18.70;35.80
4840;DHT22;2434;48.486;7.964;2022-08-11T01:17:08;18.40;36.80
4840;DHT22;2434;48.486;7.964;2022-08-11T01:20:17;18.60;36.00
4840;DHT22;2434;48.486;7.964;2022-08-11T01:23:44;18.60;35.80
4840;DHT22;2434;48.486;7.964;2022-08-11T01:27:05;18.90;34.50
4840;DHT22;2434;48.486;7.964;2022-08-11T01:30:18;19.20;33.50
4840;DHT22;2434;48.486;7.964;2022-08-11T01:39:32;18.50;36.20
4840;DHT22;2434;48.486;7.964;2022-08-11T01:45:35;18.90;35.30
4840;DHT22;2434;48.486;7.964;2022-08-11T01:48:12;18.00;39.30
4840;DHT22;2434;48.486;7.964;2022-08-11T01:51:00;17.80;39.70
4840;DHT22;2434;48.486;7.964;2022-08-11T01:53:42;17.80;39.90
4840;DHT22;2434;48.486;7.964;2022-08-11T01:56:37;17.80;40.30
4840;DHT22;2434;48.486;7.964;2022-08-11T01:59:15;18.20;39.20
4840;DHT22;2434;48.486;7.964;2022-08-11T02:02:04;18.10;38.90
4840;DHT22;2434;48.486;7.964;2022-08-11T02:04:53;18.20;38.70
4840;DHT22;2434;48.486;7.964;2022-08-11T02:07:32;18.60;37.50
4840;DHT22;2434;48.486;7.964;2022-08-11T02:10:15;18.70;37.10
4840;DHT22;2434;48.486;7.964;2022-08-11T02:13:21;18.60;36.80
4840;DHT22;2434;48.486;7.964;2022-08-11T02:16:11;18.60;36.60
4840;DHT22;2434;48.486;7.964;2022-08-11T02:18:47;19.00;34.70
4840;DHT22;2434;48.486;7.964;2022-08-11T02:21:43;19.50;34.20
4840;DHT22;2434;48.486;7.964;2022-08-11T02:24:39;19.70;32.80
4840;DHT22;2434;48.486;7.964;2022-08-11T02:27:18;20.00;32.70
4840;DHT22;2434;48.486;7.964;2022-08-11T02:29:54;20.10;32.00
4840;DHT22;2434;48.486;7.964;2022-08-11T02:32:35;20.20;31.40
4840;DHT22;2434;48.486;7.964;2022-08-11T02:35:28;20.30;31.30
4840;DHT22;2434;48.486;7.964;2022-08-11T02:38:07;20.50;30.70
4840;DHT22;2434;48.486;7.964;2022-08-11T02:40:47;20.20;30.70
4840;DHT22;2434;48.486;7.964;2022-08-11T02:43:28;20.00;31.10
4840;DHT22;2434;48.486;7.964;2022-08-11T02:46:17;20.20;30.60
4840;DHT22;2434;48.486;7.964;2022-08-11T02:49:03;20.30;31.30
4840;DHT22;2434;48.486;7.964;2022-08-11T02:52:02;20.50;30.70
4840;DHT22;2434;48.486;7.964;2022-08-11T02:54:38;20.50;30.50
4840;DHT22;2434;48.486;7.964;2022-08-11T02:57:17;20.50;30.20
4840;DHT22;2434;48.486;7.964;2022-08-11T02:59:50;20.60;29.80
4840;DHT22;2434;48.486;7.964;2022-08-11T03:02:30;20.70;29.70
4840;DHT22;2434;48.486;7.964;2022-08-11T03:05:06;20.70;29.30
4840;DHT22;2434;48.486;7.964;2022-08-11T03:07:45;20.60;29.50
4840;DHT22;2434;48.486;7.964;2022-08-11T03:10:21;20.20;30.10
4840;DHT22;2434;48.486;7.964;2022-08-11T03:12:58;20.10;30.80
4840;DHT22;2434;48.486;7.964;2022-08-11T03:15:51;19.80;31.40
4840;DHT22;2434;48.486;7.964;2022-08-11T03:18:49;19.60;32.10
4840;DHT22;2434;48.486;7.964;2022-08-11T03:21:25;19.70;32.10
4840;DHT22;2434;48.486;7.964;2022-08-11T03:24:20;19.50;32.70
4840;DHT22;2434;48.486;7.964;2022-08-11T03:27:01;19.30;33.10
4840;DHT22;2434;48.486;7.964;2022-08-11T03:29:35;19.50;33.10
4840;DHT22;2434;48.486;7.964;2022-08-11T03:32:08;19.80;32.00
4840;DHT22;2434;48.486;7.964;2022-08-11T03:34:40;20.10;31.70
4840;DHT22;2434;48.486;7.964;2022-08-11T03:37:23;20.30;31.50
4840;DHT22;2434;48.486;7.964;2022-08-11T03:40:32;20.20;30.70
4840;DHT22;2434;48.486;7.964;2022-08-11T03:43:33;20.40;30.80
4840;DHT22;2434;48.486;7.964;2022-08-11T03:46:42;20.50;30.70
4840;DHT22;2434;48.486;7.964;2022-08-11T03:49:28;20.50;30.50
4840;DHT22;2434;48.486;7.964;2022-08-11T03:52:07;20.50;30.20
4840;DHT22;2434;48.486;7.964;2022-08-11T03:54:47;20.50;30.10
4840;DHT22;2434;48.486;7.964;2022-08-11T03:57:48;20.50;30.10
4840;DHT22;2434;48.486;7.964;2022-08-11T04:00:49;20.50;29.90
4840;DHT22;2434;48.486;7.964;2022-08-11T04:03:59;20.50;29.60
4840;DHT22;2434;48.486;7.964;2022-08-11T04:07:17;20.40;30.30
4840;DHT22;2434;48.486;7.964;2022-08-11T04:13:22;20.40;30.40
4840;DHT22;2434;48.486;7.964;2022-08-11T04:16:15;20.40;30.30
4840;DHT22;2434;48.486;7.964;2022-08-11T04:22:24;19.80;31.40
4840;DHT22;2434;48.486;7.964;2022-08-11T04:25:11;18.10;37.80
4840;DHT22;2434;48.486;7.964;2022-08-11T04:28:37;17.70;39.90
4840;DHT22;2434;48.486;7.964;2022-08-11T04:31:46;18.20;38.20
4840;DHT22;2434;48.486;7.964;2022-08-11T04:34:43;18.30;37.90
4840;DHT22;2434;48.486;7.964;2022-08-11T04:37:34;17.70;39.60
4840;DHT22;2434;48.486;7.964;2022-08-11T04:40:48;17.60;40.30
4840;DHT22;2434;48.486;7.964;2022-08-11T04:47:03;17.80;40.30
4840;DHT22;2434;48.486;7.964;2022-08-11T04:49:57;17.60;41.10
4840;DHT22;2434;48.486;7.964;2022-08-11T04:53:24;17.90;40.30
4840;DHT22;2434;48.486;7.964;2022-08-11T04:56:20;17.70;40.70
4840;DHT22;2434;48.486;7.964;2022-08-11T05:03:00;17.20;44.10
4840;DHT22;2434;48.486;7.964;2022-08-11T05:05:46;17.00;45.20
4840;DHT22;2434;48.486;7.964;2022-08-11T05:09:06;16.80;46.20
4840;DHT22;2434;48.486;7.964;2022-08-11T05:12:13;17.00;45.60
4840;DHT22;2434;48.486;7.964;2022-08-11T05:14:49;17.10;45.70
4840;DHT22;2434;48.486;7.964;2022-08-11T05:17:39;17.00;46.60
4840;DHT22;2434;48.486;7.964;2022-08-11T05:20:46;16.90;47.40
4840;DHT22;2434;48.486;7.964;2022-08-11T05:23:35;16.80;48.30
4840;DHT22;2434;48.486;7.964;2022-08-11T05:26:25;16.80;48.30
4840;DHT22;2434;48.486;7.964;2022-08-11T05:29:38;17.00;47.60
4840;DHT22;2434;48.486;7.964;2022-08-11T05:32:32;17.20;47.40
4840;DHT22;2434;48.486;7.964;2022-08-11T05:35:30;17.30;47.20
4840;DHT22;2434;48.486;7.964;2022-08-11T05:38:23;17.20;48.30
4840;DHT22;2434;48.486;7.964;2022-08-11T05:41:10;17.20;48.40
4840;DHT22;2434;48.486;7.964;2022-08-11T05:44:00;17.00;49.60
4840;DHT22;2434;48.486;7.964;2022-08-11T05:46:48;16.90;50.20
4840;DHT22;2434;48.486;7.964;2022-08-11T05:49:35;17.20;49.50
4840;DHT22;2434;48.486;7.964;2022-08-11T05:52:29;17.10;49.80
4840;DHT22;2434;48.486;7.964;2022-08-11T05:55:23;17.20;49.70
4840;DHT22;2434;48.486;7.964;2022-08-11T05:58:33;17.30;49.30
4840;DHT22;2434;48.486;7.964;2022-08-11T06:01:10;17.50;49.40
4840;DHT22;2434;48.486;7.964;2022-08-11T06:03:43;17.50;49.20
4840;DHT22;2434;48.486;7.964;2022-08-11T06:06:30;17.60;48.90
4840;DHT22;2434;48.486;7.964;2022-08-11T06:08:59;17.60;48.80
4840;DHT22;2434;48.486;7.964;2022-08-11T06:11:28;17.80;48.10
4840;DHT22;2434;48.486;7.964;2022-08-11T06:14:11;17.90;48.30
4840;DHT22;2434;48.486;7.964;2022-08-11T06:16:42;18.00;48.10
4840;DHT22;2434;48.486;7.964;2022-08-11T06:19:10;18.00;48.50
4840;DHT22;2434;48.486;7.964;2022-08-11T06:21:44;18.10;47.70
4840;DHT22;2434;48.486;7.964;2022-08-11T06:24:14;18.20;47.10
4840;DHT22;2434;48.486;7.964;2022-08-11T06:26:47;18.20;47.20
4840;DHT22;2434;48.486;7.964;2022-08-11T06:29:44;18.30;47.20
4840;DHT22;2434;48.486;7.964;2022-08-11T06:32:15;18.40;46.40
4840;DHT22;2434;48.486;7.964;2022-08-11T06:34:57;18.50;46.10
4840;DHT22;2434;48.486;7.964;2022-08-11T06:37:39;18.60;45.80
4840;DHT22;2434;48.486;7.964;2022-08-11T06:40:20;18.50;45.90
4840;DHT22;2434;48.486;7.964;2022-08-11T06:42:56;18.60;45.30
4840;DHT22;2434;48.486;7.964;2022-08-11T06:45:31;18.70;45.30
4840;DHT22;2434;48.486;7.964;2022-08-11T06:48:03;18.70;45.20
4840;DHT22;2434;48.486;7.964;2022-08-11T06:50:36;18.80;44.70
4840;DHT22;2434;48.486;7.964;2022-08-11T06:53:22;19.00;45.40
4840;DHT22;2434;48.486;7.964;2022-08-11T06:55:51;19.20;46.10
4840;DHT22;2434;48.486;7.964;2022-08-11T06:58:40;19.20;44.40
4840;DHT22;2434;48.486;7.964;2022-08-11T07:01:39;19.50;44.00
4840;DHT22;2434;48.486;7.964;2022-08-11T07:04:23;19.60;43.40
4840;DHT22;2434;48.486;7.964;2022-08-11T07:10:22;19.80;42.70
4840;DHT22;2434;48.486;7.964;2022-08-11T07:13:11;20.00;41.40
4840;DHT22;2434;48.486;7.964;2022-08-11T07:16:14;20.20;41.20
4840;DHT22;2434;48.486;7.964;2022-08-11T07:18:50;20.30;41.20
4840;DHT22;2434;48.486;7.964;2022-08-11T07:21:45;20.40;40.40
4840;DHT22;2434;48.486;7.964;2022-08-11T07:24:35;20.50;40.40
4840;DHT22;2434;48.486;7.964;2022-08-11T07:27:32;20.80;39.80
4840;DHT22;2434;48.486;7.964;2022-08-11T07:30:20;21.10;39.40
4840;DHT22;2434;48.486;7.964;2022-08-11T07:32:51;21.20;37.60
4840;DHT22;2434;48.486;7.964;2022-08-11T07:35:23;21.50;37.60
4840;DHT22;2434;48.486;7.964;2022-08-11T07:37:59;21.50;37.70
4840;DHT22;2434;48.486;7.964;2022-08-11T07:40:32;21.60;36.30
4840;DHT22;2434;48.486;7.964;2022-08-11T07:43:02;21.80;35.70
4840;DHT22;2434;48.486;7.964;2022-08-11T07:45:31;21.80;35.00
4840;DHT22;2434;48.486;7.964;2022-08-11T07:48:18;21.90;36.20
4840;DHT22;2434;48.486;7.964;2022-08-11T07:51:05;22.30;34.80
4840;DHT22;2434;48.486;7.964;2022-08-11T07:53:53;22.30;34.40
4840;DHT22;2434;48.486;7.964;2022-08-11T07:56:31;22.40;31.60
4840;DHT22;2434;48.486;7.964;2022-08-11T07:59:20;22.50;31.30
4840;DHT22;2434;48.486;7.964;2022-08-11T08:02:38;22.70;29.60
4840;DHT22;2434;48.486;7.964;2022-08-11T08:05:24;23.00;30.40
4840;DHT22;2434;48.486;7.964;2022-08-11T08:08:13;23.00;31.20
4840;DHT22;2434;48.486;7.964;2022-08-11T08:11:00;23.20;30.90
4840;DHT22;2434;48.486;7.964;2022-08-11T08:13:53;23.20;29.20
4840;DHT22;2434;48.486;7.964;2022-08-11T08:16:40;23.30;29.30
4840;DHT22;2434;48.486;7.964;2022-08-11T08:19:27;23.30;29.90
4840;DHT22;2434;48.486;7.964;2022-08-11T08:21:56;23.50;29.80
4840;DHT22;2434;48.486;7.964;2022-08-11T08:24:45;23.60;28.20
4840;DHT22;2434;48.486;7.964;2022-08-11T08:27:15;23.80;28.40
4840;DHT22;2434;48.486;7.964;2022-08-11T08:29:44;23.90;28.30
4840;DHT22;2434;48.486;7.964;2022-08-11T08:32:31;23.90;29.80
4840;DHT22;2434;48.486;7.964;2022-08-11T08:35:02;24.10;26.30
4840;DHT22;2434;48.486;7.964;2022-08-11T08:37:31;24.20;25.70
4840;DHT22;2434;48.486;7.964;2022-08-11T08:40:14;24.50;25.60
4840;DHT22;2434;48.486;7.964;2022-08-11T08:42:48;24.60;22.20
4840;DHT22;2434;48.486;7.964;2022-08-11T08:45:20;24.80;19.50
4840;DHT22;2434;48.486;7.964;2022-08-11T08:47:53;24.70;19.70
4840;DHT22;2434;48.486;7.964;2022-08-11T08:50:27;24.80;19.10
4840;DHT22;2434;48.486;7.964;2022-08-11T08:53:21;24.90;19.90
4840;DHT22;2434;48.486;7.964;2022-08-11T08:55:50;25.10;18.40
4840;DHT22;2434;48.486;7.964;2022-08-11T08:58:24;25.30;18.80
4840;DHT22;2434;48.486;7.964;2022-08-11T09:00:53;25.40;17.30
4840;DHT22;2434;48.486;7.964;2022-08-11T09:03:23;25.70;17.20
4840;DHT22;2434;48.486;7.964;2022-08-11T09:06:14;25.80;16.90
4840;DHT22;2434;48.486;7.964;2022-08-11T09:08:43;26.10;15.90
4840;DHT22;2434;48.486;7.964;2022-08-11T09:11:15;26.10;15.50
4840;DHT22;2434;48.486;7.964;2022-08-11T09:14:03;26.10;17.00
4840;DHT22;2434;48.486;7.964;2022-08-11T09:16:38;26.30;16.30
4840;DHT22;2434;48.486;7.964;2022-08-11T09:19:07;26.40;15.50
4840;DHT22;2434;48.486;7.964;2022-08-11T09:21:39;26.40;16.20
4840;DHT22;2434;48.486;7.964;2022-08-11T09:24:16;26.60;15.60
4840;DHT22;2434;48.486;7.964;2022-08-11T09:27:05;26.70;15.80
4840;DHT22;2434;48.486;7.964;2022-08-11T09:29:37;26.80;15.80
4840;DHT22;2434;48.486;7.964;2022-08-11T09:32:05;27.00;15.30
4840;DHT22;2434;48.486;7.964;2022-08-11T09:34:37;27.10;15.40
4840;DHT22;2434;48.486;7.964;2022-08-11T09:37:07;27.10;14.90
4840;DHT22;2434;48.486;7.964;2022-08-11T09:40:14;27.30;15.20
4840;DHT22;2434;48.486;7.964;2022-08-11T09:43:00;27.30;13.80
4840;DHT22;2434;48.486;7.964;2022-08-11T09:45:50;27.30;14.70
4840;DHT22;2434;48.486;7.964;2022-08-11T09:48:20;27.30;13.90
4840;DHT22;2434;48.486;7.964;2022-08-11T09:50:51;27.40;15.20
4840;DHT22;2434;48.486;7.964;2022-08-11T09:53:21;27.50;15.10
4840;DHT22;2434;48.486;7.964;2022-08-11T09:56:10;27.60;13.60
4840;DHT22;2434;48.486;7.964;2022-08-11T09:58:57;27.70;14.40
4840;DHT22;2434;48.486;7.964;2022-08-11T10:01:30;27.70;13.60
4840;DHT22;2434;48.486;7.964;2022-08-11T10:04:05;27.60;14.40
4840;DHT22;2434;48.486;7.964;2022-08-11T10:06:36;27.70;13.00
4840;DHT22;2434;48.486;7.964;2022-08-11T10:09:24;27.70;13.00
4840;DHT22;2434;48.486;7.964;2022-08-11T10:11:56;27.70;14.10
4840;DHT22;2434;48.486;7.964;2022-08-11T10:14:27;27.90;12.80
4840;DHT22;2434;48.486;7.964;2022-08-11T10:17:18;27.90;11.30
4840;DHT22;2434;48.486;7.964;2022-08-11T10:19:48;27.90;12.50
4840;DHT22;2434;48.486;7.964;2022-08-11T10:22:33;28.00;12.40
4840;DHT22;2434;48.486;7.964;2022-08-11T10:25:19;28.10;13.90
4840;DHT22;2434;48.486;7.964;2022-08-11T10:28:07;28.50;12.80
4840;DHT22;2434;48.486;7.964;2022-08-11T10:30:57;28.50;12.50
4840;DHT22;2434;48.486;7.964;2022-08-11T10:33:45;28.60;12.00
4840;DHT22;2434;48.486;7.964;2022-08-11T10:36:31;28.80;12.40
4840;DHT22;2434;48.486;7.964;2022-08-11T10:39:02;28.90;12.00
4840;DHT22;2434;48.486;7.964;2022-08-11T10:41:33;28.50;10.70
4840;DHT22;2434;48.486;7.964;2022-08-11T10:44:37;28.60;12.50
4840;DHT22;2434;48.486;7.964;2022-08-11T10:47:06;29.00;12.40
4840;DHT22;2434;48.486;7.964;2022-08-11T10:50:14;29.20;12.30
4840;DHT22;2434;48.486;7.964;2022-08-11T10:52:59;29.40;11.00
4840;DHT22;2434;48.486;7.964;2022-08-11T10:55:46;29.40;11.40
4840;DHT22;2434;48.486;7.964;2022-08-11T10:58:33;29.60;11.40
4840;DHT22;2434;48.486;7.964;2022-08-11T11:01:14;29.50;9.40
4840;DHT22;2434;48.486;7.964;2022-08-11T11:03:44;29.50;10.60
4840;DHT22;2434;48.486;7.964;2022-08-11T11:06:22;29.60;10.80
4840;DHT22;2434;48.486;7.964;2022-08-11T11:08:59;29.70;9.50
4840;DHT22;2434;48.486;7.964;2022-08-11T11:11:35;29.40;9.50
4840;DHT22;2434;48.486;7.964;2022-08-11T11:14:26;29.50;10.40
4840;DHT22;2434;48.486;7.964;2022-08-11T11:17:26;29.30;10.40
4840;DHT22;2434;48.486;7.964;2022-08-11T11:20:25;29.20;10.00
4840;DHT22;2434;48.486;7.964;2022-08-11T11:23:09;29.30;10.00
4840;DHT22;2434;48.486;7.964;2022-08-11T11:32:17;29.80;10.50
4840;DHT22;2434;48.486;7.964;2022-08-11T11:37:55;30.00;11.30
4840;DHT22;2434;48.486;7.964;2022-08-11T11:40:34;30.40;11.00
4840;DHT22;2434;48.486;7.964;2022-08-11T11:43:04;30.60;10.30
4840;DHT22;2434;48.486;7.964;2022-08-11T11:45:33;30.90;9.80
4840;DHT22;2434;48.486;7.964;2022-08-11T11:48:02;30.40;9.60
4840;DHT22;2434;48.486;7.964;2022-08-11T11:50:32;29.90;11.40
4840;DHT22;2434;48.486;7.964;2022-08-11T11:53:04;30.10;9.50
4840;DHT22;2434;48.486;7.964;2022-08-11T11:55:35;29.80;10.60
4840;DHT22;2434;48.486;7.964;2022-08-11T11:58:04;29.70;10.00
4840;DHT22;2434;48.486;7.964;2022-08-11T12:00:51;29.70;10.10
4840;DHT22;2434;48.486;7.964;2022-08-11T12:03:39;29.90;10.70
4840;DHT22;2434;48.486;7.964;2022-08-11T12:06:08;29.80;10.10
4840;DHT22;2434;48.486;7.964;2022-08-11T12:08:38;30.00;10.40
4840;DHT22;2434;48.486;7.964;2022-08-11T12:11:10;30.30;10.10
4840;DHT22;2434;48.486;7.964;2022-08-11T12:13:59;30.50;10.90
4840;DHT22;2434;48.486;7.964;2022-08-11T12:16:37;30.80;10.20
4840;DHT22;2434;48.486;7.964;2022-08-11T12:19:08;31.20;9.20
4840;DHT22;2434;48.486;7.964;2022-08-11T12:21:39;31.50;8.80
4840;DHT22;2434;48.486;7.964;2022-08-11T12:24:31;31.70;7.90
4840;DHT22;2434;48.486;7.964;2022-08-11T12:27:18;31.10;7.20
4840;DHT22;2434;48.486;7.964;2022-08-11T12:29:54;30.80;8.00
4840;DHT22;2434;48.486;7.964;2022-08-11T12:32:26;30.20;9.10
4840;DHT22;2434;48.486;7.964;2022-08-11T12:34:55;29.90;9.10
4840;DHT22;2434;48.486;7.964;2022-08-11T12:37:30;30.10;10.20
4840;DHT22;2434;48.486;7.964;2022-08-11T12:40:01;30.20;9.90
4840;DHT22;2434;48.486;7.964;2022-08-11T12:43:12;30.30;10.00
4840;DHT22;2434;48.486;7.964;2022-08-11T12:46:07;30.30;9.70
4840;DHT22;2434;48.486;7.964;2022-08-11T12:48:40;30.40;9.90
4840;DHT22;2434;48.486;7.964;2022-08-11T12:51:33;30.70;10.20
4840;DHT22;2434;48.486;7.964;2022-08-11T12:54:47;30.90;8.10
4840;DHT22;2434;48.486;7.964;2022-08-11T12:57:26;30.40;9.20
4840;DHT22;2434;48.486;7.964;2022-08-11T13:00:15;30.40;9.40
4840;DHT22;2434;48.486;7.964;2022-08-11T13:03:02;30.40;10.60
4840;DHT22;2434;48.486;7.964;2022-08-11T13:05:52;30.70;8.80
4840;DHT22;2434;48.486;7.964;2022-08-11T13:08:22;30.70;8.40
4840;DHT22;2434;48.486;7.964;2022-08-11T13:10:52;30.90;8.70
4840;DHT22;2434;48.486;7.964;2022-08-11T13:13:39;30.70;8.70
4840;DHT22;2434;48.486;7.964;2022-08-11T13:16:27;30.50;8.10
4840;DHT22;2434;48.486;7.964;2022-08-11T13:18:57;30.70;8.60
4840;DHT22;2434;48.486;7.964;2022-08-11T13:21:27;30.50;7.90
4840;DHT22;2434;48.486;7.964;2022-08-11T13:23:58;30.70;7.60
4840;DHT22;2434;48.486;7.964;2022-08-11T13:26:34;30.70;9.00
4840;DHT22;2434;48.486;7.964;2022-08-11T13:29:20;31.00;7.80
4840;DHT22;2434;48.486;7.964;2022-08-11T13:31:53;30.70;8.10
4840;DHT22;2434;48.486;7.964;2022-08-11T13:34:24;30.50;8.20
4840;DHT22;2434;48.486;7.964;2022-08-11T13:36:56;30.50;8.00
4840;DHT22;2434;48.486;7.964;2022-08-11T13:39:27;30.30;8.00
4840;DHT22;2434;48.486;7.964;2022-08-11T13:41:59;30.50;8.20
4840;DHT22;2434;48.486;7.964;2022-08-11T13:44:30;30.80;8.50
4840;DHT22;2434;48.486;7.964;2022-08-11T13:47:03;31.10;10.60
4840;DHT22;2434;48.486;7.964;2022-08-11T13:49:44;31.50;8.90
4840;DHT22;2434;48.486;7.964;2022-08-11T13:52:22;31.40;7.30
4840;DHT22;2434;48.486;7.964;2022-08-11T13:54:50;31.20;9.00
4840;DHT22;2434;48.486;7.964;2022-08-11T13:57:20;31.40;7.20
4840;DHT22;2434;48.486;7.964;2022-08-11T14:00:09;31.60;8.40
4840;DHT22;2434;48.486;7.964;2022-08-11T14:02:56;31.00;6.60
4840;DHT22;2434;48.486;7.964;2022-08-11T14:05:27;31.30;7.40
4840;DHT22;2434;48.486;7.964;2022-08-11T14:07:58;31.50;8.10
4840;DHT22;2434;48.486;7.964;2022-08-11T14:10:30;31.20;6.40
4840;DHT22;2434;48.486;7.964;2022-08-11T14:13:01;31.00;7.60
4840;DHT22;2434;48.486;7.964;2022-08-11T14:15:48;31.40;7.50
4840;DHT22;2434;48.486;7.964;2022-08-11T14:18:21;31.80;6.40
4840;DHT22;2434;48.486;7.964;2022-08-11T14:20:53;31.60;6.20
4840;DHT22;2434;48.486;7.964;2022-08-11T14:23:41;31.30;6.50
4840;DHT22;2434;48.486;7.964;2022-08-11T14:26:11;31.10;6.80
4840;DHT22;2434;48.486;7.964;2022-08-11T14:28:55;31.20;8.40
4840;DHT22;2434;48.486;7.964;2022-08-11T14:31:26;31.30;8.30
4840;DHT22;2434;48.486;7.964;2022-08-11T14:34:00;31.20;6.70
4840;DHT22;2434;48.486;7.964;2022-08-11T14:36:33;31.20;8.60
4840;DHT22;2434;48.486;7.964;2022-08-11T14:39:06;31.60;8.20
4840;DHT22;2434;48.486;7.964;2022-08-11T14:41:35;31.30;6.90
4840;DHT22;2434;48.486;7.964;2022-08-11T14:44:42;31.60;9.00
4840;DHT22;2434;48.486;7.964;2022-08-11T14:47:29;32.10;8.50
4840;DHT22;2434;48.486;7.964;2022-08-11T14:50:00;32.40;6.80
4840;DHT22;2434;48.486;7.964;2022-08-11T14:52:42;32.50;7.70
4840;DHT22;2434;48.486;7.964;2022-08-11T14:55:12;32.30;6.60
4840;DHT22;2434;48.486;7.964;2022-08-11T14:57:59;32.50;7.10
4840;DHT22;2434;48.486;7.964;2022-08-11T15:00:30;31.90;5.60
4840;DHT22;2434;48.486;7.964;2022-08-11T15:03:02;31.70;7.50
4840;DHT22;2434;48.486;7.964;2022-08-11T15:05:47;31.80;7.10
4840;DHT22;2434;48.486;7.964;2022-08-11T15:08:28;31.60;7.30
4840;DHT22;2434;48.486;7.964;2022-08-11T15:11:16;31.70;6.80
4840;DHT22;2434;48.486;7.964;2022-08-11T15:14:05;31.80;7.70
4840;DHT22;2434;48.486;7.964;2022-08-11T15:16:34;32.20;8.00
4840;DHT22;2434;48.486;7.964;2022-08-11T15:19:23;31.70;6.30
4840;DHT22;2434;48.486;7.964;2022-08-11T15:22:08;31.60;6.30
4840;DHT22;2434;48.486;7.964;2022-08-11T15:24:57;31.80;7.50
4840;DHT22;2434;48.486;7.964;2022-08-11T15:27:29;32.20;7.30
4840;DHT22;2434;48.486;7.964;2022-08-11T15:30:15;32.30;7.20
4840;DHT22;2434;48.486;7.964;2022-08-11T15:33:07;32.80;6.30
4840;DHT22;2434;48.486;7.964;2022-08-11T15:35:55;32.90;6.20
4840;DHT22;2434;48.486;7.964;2022-08-11T15:38:46;33.00;6.50
4840;DHT22;2434;48.486;7.964;2022-08-11T15:41:25;32.60;5.70
4840;DHT22;2434;48.486;7.964;2022-08-11T15:44:27;31.90;7.00
4840;DHT22;2434;48.486;7.964;2022-08-11T15:47:39;32.10;7.70
4840;DHT22;2434;48.486;7.964;2022-08-11T15:50:13;32.50;6.70
4840;DHT22;2434;48.486;7.964;2022-08-11T15:52:51;32.60;7.40
4840;DHT22;2434;48.486;7.964;2022-08-11T15:55:22;32.10;7.30
4840;DHT22;2434;48.486;7.964;2022-08-11T15:57:54;32.10;7.50
4840;DHT22;2434;48.486;7.964;2022-08-11T16:00:41;32.30;7.50
4840;DHT22;2434;48.486;7.964;2022-08-11T16:03:40;32.50;7.00
4840;DHT22;2434;48.486;7.964;2022-08-11T16:06:37;32.20;6.90
4840;DHT22;2434;48.486;7.964;2022-08-11T16:09:19;32.40;7.30
4840;DHT22;2434;48.486;7.964;2022-08-11T16:11:52;32.20;6.90
4840;DHT22;2434;48.486;7.964;2022-08-11T16:14:22;32.40;7.50
4840;DHT22;2434;48.486;7.964;2022-08-11T16:17:10;32.30;7.50
4840;DHT22;2434;48.486;7.964;2022-08-11T16:19:40;32.10;7.80
4840;DHT22;2434;48.486;7.964;2022-08-11T16:22:11;32.10;6.70
4840;DHT22;2434;48.486;7.964;2022-08-11T16:24:42;31.90;6.10
4840;DHT22;2434;48.486;7.964;2022-08-11T16:27:36;32.10;8.00
4840;DHT22;2434;48.486;7.964;2022-08-11T16:30:06;32.30;7.80
4840;DHT22;2434;48.486;7.964;2022-08-11T16:32:37;32.20;7.50
4840;DHT22;2434;48.486;7.964;2022-08-11T16:35:10;32.10;7.90
4840;DHT22;2434;48.486;7.964;2022-08-11T16:37:56;32.20;7.90
4840;DHT22;2434;48.486;7.964;2022-08-11T16:40:44;32.20;7.70
4840;DHT22;2434;48.486;7.964;2022-08-11T16:43:18;32.30;8.20
4840;DHT22;2434;48.486;7.964;2022-08-11T16:46:06;32.10;8.20
4840;DHT22;2434;48.486;7.964;2022-08-11T16:48:53;32.00;7.60
4840;DHT22;2434;48.486;7.964;2022-08-11T16:51:22;32.00;8.20
4840;DHT22;2434;48.486;7.964;2022-08-11T16:53:50;32.10;7.10
4840;DHT22;2434;48.486;7.964;2022-08-11T16:56:35;31.80;7.00
4840;DHT22;2434;48.486;7.964;2022-08-11T16:59:09;31.70;7.00
4840;DHT22;2434;48.486;7.964;2022-08-11T17:01:44;31.50;7.30
4840;DHT22;2434;48.486;7.964;2022-08-11T17:04:18;31.60;8.10
4840;DHT22;2434;48.486;7.964;2022-08-11T17:07:05;31.60;7.30
4840;DHT22;2434;48.486;7.964;2022-08-11T17:10:16;31.60;8.00
4840;DHT22;2434;48.486;7.964;2022-08-11T17:13:25;31.60;7.70
4840;DHT22;2434;48.486;7.964;2022-08-11T17:15:59;31.50;7.60
4840;DHT22;2434;48.486;7.964;2022-08-11T17:18:40;31.50;7.90
4840;DHT22;2434;48.486;7.964;2022-08-11T17:21:18;31.50;7.80
4840;DHT22;2434;48.486;7.964;2022-08-11T17:23:51;31.50;7.80
4840;DHT22;2434;48.486;7.964;2022-08-11T17:26:26;31.50;7.80
4840;DHT22;2434;48.486;7.964;2022-08-11T17:29:18;31.30;7.40
4840;DHT22;2434;48.486;7.964;2022-08-11T17:31:49;31.10;7.60
4840;DHT22;2434;48.486;7.964;2022-08-11T17:34:36;31.20;8.30
4840;DHT22;2434;48.486;7.964;2022-08-11T17:37:24;31.20;8.10
4840;DHT22;2434;48.486;7.964;2022-08-11T17:39:54;31.00;8.10
4840;DHT22;2434;48.486;7.964;2022-08-11T17:42:25;31.10;8.20
4840;DHT22;2434;48.486;7.964;2022-08-11T17:45:12;31.10;7.80
4840;DHT22;2434;48.486;7.964;2022-08-11T17:48:00;31.00;7.80
4840;DHT22;2434;48.486;7.964;2022-08-11T17:50:47;31.00;8.70
4840;DHT22;2434;48.486;7.964;2022-08-11T17:53:16;30.90;8.40
4840;DHT22;2434;48.486;7.964;2022-08-11T17:56:03;30.60;8.10
4840;DHT22;2434;48.486;7.964;2022-08-11T17:58:52;30.50;8.40
4840;DHT22;2434;48.486;7.964;2022-08-11T18:01:40;30.50;8.80
4840;DHT22;2434;48.486;7.964;2022-08-11T18:04:14;30.50;8.70
4840;DHT22;2434;48.486;7.964;2022-08-11T18:06:42;30.50;9.00
4840;DHT22;2434;48.486;7.964;2022-08-11T18:09:14;30.50;9.20
4840;DHT22;2434;48.486;7.964;2022-08-11T18:12:01;30.60;8.90
4840;DHT22;2434;48.486;7.964;2022-08-11T18:14:50;30.50;9.40
4840;DHT22;2434;48.486;7.964;2022-08-11T18:17:36;30.30;9.40
4840;DHT22;2434;48.486;7.964;2022-08-11T18:20:24;30.30;8.90
4840;DHT22;2434;48.486;7.964;2022-08-11T18:23:15;30.20;9.60
4840;DHT22;2434;48.486;7.964;2022-08-11T18:26:16;30.20;9.40
4840;DHT22;2434;48.486;7.964;2022-08-11T18:29:05;30.10;9.40
4840;DHT22;2434;48.486;7.964;2022-08-11T18:31:53;30.00;9.40